createdAt,value
2019-05-22T00:01:16.430Z,78.80
2019-05-22T00:03:51.418Z,78.80
2019-05-22T00:06:26.914Z,78.60
2019-05-22T00:08:58.273Z,78.70
2019-05-22T00:11:29.226Z,78.70
2019-05-22T00:13:59.674Z,78.70
2019-05-22T00:16:31.531Z,78.80
2019-05-22T00:19:00.944Z,78.80
2019-05-22T00:21:29.994Z,78.80
2019-05-22T00:23:59.564Z,78.90
2019-05-22T00:26:28.635Z,78.90
2019-05-22T00:28:57.109Z,79.00
2019-05-22T00:31:26.668Z,78.90
2019-05-22T00:33:57.485Z,79.00
2019-05-22T00:36:26.587Z,79.00
2019-05-22T00:38:56.849Z,79.10
2019-05-22T00:41:27.162Z,79.10
2019-05-22T00:43:56.595Z,80.80
2019-05-22T00:46:25.505Z,80.80
2019-05-22T00:48:54.733Z,80.60
2019-05-22T00:51:37.437Z,80.50
2019-05-22T00:54:39.266Z,80.50
2019-05-22T00:57:27.262Z,80.40
2019-05-22T01:00:01.511Z,80.30
2019-05-22T01:02:32.635Z,80.20
2019-05-22T01:05:01.234Z,80.10
2019-05-22T01:07:36.985Z,80.10
2019-05-22T01:10:08.538Z,80.20
2019-05-22T01:12:42.124Z,80.20
2019-05-22T01:15:14.513Z,80.30
2019-05-22T01:17:44.616Z,80.80
2019-05-22T01:20:16.479Z,80.20
2019-05-22T01:22:48.122Z,80.30
2019-05-22T01:25:20.954Z,80.40
2019-05-22T01:27:49.603Z,80.40
2019-05-22T01:30:28.453Z,80.40
2019-05-22T01:32:59.479Z,80.40
2019-05-22T01:35:35.001Z,80.50
2019-05-22T01:38:03.766Z,80.50
2019-05-22T01:40:41.625Z,80.40
2019-05-22T01:43:11.461Z,80.30
2019-05-22T01:45:39.742Z,80.20
2019-05-22T01:48:15.023Z,80.20
2019-05-22T01:50:48.866Z,80.20
2019-05-22T01:53:21.238Z,80.10
2019-05-22T01:55:51.857Z,80.20
2019-05-22T01:58:23.486Z,80.20
2019-05-22T02:00:53.717Z,80.30
2019-05-22T02:03:24.862Z,80.40
2019-05-22T02:05:54.895Z,80.60
2019-05-22T02:08:24.967Z,80.50
2019-05-22T02:10:57.527Z,80.70
2019-05-22T02:13:33.106Z,80.70
2019-05-22T02:16:02.009Z,80.90
2019-05-22T02:18:33.555Z,80.90
2019-05-22T02:21:04.141Z,80.90
2019-05-22T02:23:34.044Z,81.10
2019-05-22T02:26:03.661Z,80.80
2019-05-22T02:28:32.375Z,80.60
2019-05-22T02:31:01.028Z,80.60
2019-05-22T02:33:31.743Z,80.60
2019-05-22T02:36:01.993Z,80.60
2019-05-22T02:38:31.452Z,80.70
2019-05-22T02:41:01.044Z,80.70
2019-05-22T02:43:30.558Z,80.60
2019-05-22T02:45:59.885Z,80.50
2019-05-22T02:48:30.338Z,80.60
2019-05-22T02:50:59.367Z,80.60
2019-05-22T02:53:29.374Z,80.80
2019-05-22T02:55:58.335Z,80.80
2019-05-22T02:58:28.384Z,80.80
2019-05-22T03:01:01.274Z,80.80
2019-05-22T03:03:33.960Z,80.70
2019-05-22T03:06:05.367Z,80.60
2019-05-22T03:09:07.631Z,80.50
2019-05-22T03:11:39.326Z,80.40
2019-05-22T03:14:08.886Z,80.30
2019-05-22T03:16:50.948Z,80.40
2019-05-22T03:19:30.850Z,80.50
2019-05-22T03:22:00.659Z,80.60
2019-05-22T03:24:30.456Z,80.70
2019-05-22T03:27:00.766Z,80.60
2019-05-22T03:29:43.416Z,80.60
2019-05-22T03:32:12.083Z,80.60
2019-05-22T03:34:42.286Z,80.60
2019-05-22T03:37:10.860Z,80.50
2019-05-22T03:39:39.514Z,80.50
2019-05-22T03:42:08.758Z,80.60
2019-05-22T03:44:38.871Z,80.80
2019-05-22T03:47:09.137Z,80.90
2019-05-22T03:49:37.846Z,80.90
2019-05-22T03:52:08.745Z,81.00
2019-05-22T03:54:37.942Z,81.00
2019-05-22T03:57:07.351Z,81.10
2019-05-22T03:59:38.070Z,81.10
2019-05-22T04:02:07.936Z,81.10
2019-05-22T04:04:40.094Z,81.10
2019-05-22T04:07:19.110Z,81.30
2019-05-22T04:09:51.323Z,81.30
2019-05-22T04:12:20.879Z,81.30
2019-05-22T04:14:50.484Z,81.40
2019-05-22T04:17:20.871Z,81.40
2019-05-22T04:19:51.696Z,81.40
2019-05-22T04:22:20.110Z,81.30
2019-05-22T04:24:49.014Z,81.30
2019-05-22T04:27:18.502Z,81.30
2019-05-22T04:29:49.495Z,81.40
2019-05-22T04:32:30.683Z,81.60
2019-05-22T04:35:00.097Z,81.80
2019-05-22T04:37:30.789Z,81.80
2019-05-22T04:40:45.944Z,81.60
2019-05-22T04:43:20.350Z,81.30
2019-05-22T04:45:47.925Z,80.90
2019-05-22T04:48:19.555Z,80.60
2019-05-22T04:50:49.857Z,80.30
2019-05-22T04:53:18.490Z,79.80
2019-05-22T04:55:46.984Z,79.50
2019-05-22T04:58:19.274Z,79.20
2019-05-22T05:00:48.606Z,78.90
2019-05-22T05:03:19.095Z,78.60
2019-05-22T05:05:49.515Z,78.20
2019-05-22T05:08:18.922Z,77.90
2019-05-22T05:10:50.105Z,77.40
2019-05-22T05:13:20.298Z,76.90
2019-05-22T05:15:48.738Z,76.40
2019-05-22T05:18:17.349Z,75.60
2019-05-22T05:20:45.969Z,75.40
2019-05-22T05:23:14.390Z,75.10
2019-05-22T05:25:44.016Z,74.80
2019-05-22T05:28:15.165Z,74.40
2019-05-22T05:30:44.654Z,74.00
2019-05-22T05:33:13.668Z,73.20
2019-05-22T05:35:43.858Z,72.70
2019-05-22T05:38:13.622Z,72.20
2019-05-22T05:40:42.662Z,71.40
2019-05-22T05:43:14.455Z,71.10
2019-05-22T05:45:45.327Z,71.20
2019-05-22T05:48:22.202Z,71.00
2019-05-22T05:51:27.403Z,71.00
2019-05-22T05:54:03.901Z,71.10
2019-05-22T05:56:35.482Z,71.10
2019-05-22T05:59:06.441Z,70.70
2019-05-22T06:01:45.739Z,70.10
2019-05-22T06:04:34.115Z,69.50
2019-05-22T06:07:27.595Z,69.20
2019-05-22T06:10:29.962Z,68.50
2019-05-22T06:12:59.374Z,68.30
2019-05-22T06:16:29.026Z,68.20
2019-05-22T06:18:57.935Z,68.30
2019-05-22T06:21:26.994Z,68.00
2019-05-22T06:24:23.004Z,68.30
2019-05-22T06:27:10.846Z,68.50
2019-05-22T06:29:48.427Z,68.30
2019-05-22T06:33:02.159Z,68.00
2019-05-22T06:35:35.206Z,67.50
2019-05-22T06:38:32.060Z,67.00
2019-05-22T06:41:01.223Z,66.40
2019-05-22T06:44:23.223Z,65.60
2019-05-22T06:46:51.845Z,64.70
2019-05-22T06:49:39.113Z,63.90
2019-05-22T06:52:08.834Z,61.00
2019-05-22T06:54:38.012Z,60.90
2019-05-22T06:57:11.316Z,60.70
2019-05-22T06:59:40.870Z,60.30
2019-05-22T07:02:09.923Z,60.10
2019-05-22T07:04:39.575Z,59.70
2019-05-22T07:07:11.621Z,59.20
2019-05-22T07:09:41.826Z,58.80
2019-05-22T07:12:12.548Z,59.10
2019-05-22T07:15:20.334Z,59.30
2019-05-22T07:17:52.526Z,59.40
2019-05-22T07:20:23.851Z,59.50
2019-05-22T07:22:53.298Z,58.90
2019-05-22T07:25:22.451Z,58.40
2019-05-22T07:27:51.454Z,58.00
2019-05-22T07:30:20.488Z,57.60
2019-05-22T07:32:49.245Z,57.10
2019-05-22T07:35:18.106Z,56.90
2019-05-22T07:37:49.313Z,56.70
2019-05-22T07:40:19.005Z,56.40
2019-05-22T07:42:48.240Z,55.80
2019-05-22T07:45:16.906Z,55.20
2019-05-22T07:47:46.179Z,55.20
2019-05-22T07:50:15.206Z,54.70
2019-05-22T07:52:43.814Z,54.80
2019-05-22T07:55:13.492Z,54.70
2019-05-22T07:57:46.562Z,54.40
2019-05-22T08:00:16.330Z,54.90
2019-05-22T08:02:47.822Z,54.50
2019-05-22T08:05:20.962Z,54.60
2019-05-22T08:07:51.267Z,54.70
2019-05-22T08:10:21.639Z,54.80
2019-05-22T08:12:52.413Z,54.90
2019-05-22T08:15:28.248Z,55.30
2019-05-22T08:18:00.008Z,55.70
2019-05-22T08:20:29.439Z,55.70
2019-05-22T08:22:59.643Z,55.60
2019-05-22T08:25:28.583Z,55.40
2019-05-22T08:27:58.650Z,55.00
2019-05-22T08:30:27.489Z,54.70
2019-05-22T08:32:59.875Z,54.40
2019-05-22T08:35:29.060Z,54.00
2019-05-22T08:37:58.823Z,53.70
2019-05-22T08:40:28.797Z,54.00
2019-05-22T08:42:57.579Z,54.10
2019-05-22T08:45:28.950Z,53.80
2019-05-22T08:48:00.226Z,53.60
2019-05-22T08:50:30.924Z,53.10
2019-05-22T08:53:00.619Z,53.10
2019-05-22T08:55:31.939Z,53.00
2019-05-22T08:58:00.737Z,53.10
2019-05-22T09:00:29.384Z,53.20
2019-05-22T09:02:58.112Z,53.00
2019-05-22T09:05:27.062Z,53.00
2019-05-22T09:07:55.745Z,53.00
2019-05-22T09:10:26.257Z,53.20
2019-05-22T09:12:55.009Z,53.30
2019-05-22T09:15:23.834Z,53.30
2019-05-22T09:17:52.419Z,53.00
2019-05-22T09:20:22.230Z,52.40
2019-05-22T09:22:51.662Z,52.00
2019-05-22T09:25:20.251Z,51.80
2019-05-22T09:27:49.107Z,51.90
2019-05-22T09:30:18.232Z,52.00
2019-05-22T09:32:47.668Z,52.20
2019-05-22T09:35:16.638Z,52.10
2019-05-22T09:37:45.290Z,52.00
2019-05-22T09:40:14.591Z,51.60
2019-05-22T09:42:43.461Z,51.60
2019-05-22T09:45:13.776Z,51.80
2019-05-22T09:47:42.394Z,51.70
2019-05-22T09:50:11.954Z,51.90
2019-05-22T09:52:56.226Z,51.90
2019-05-22T09:55:13.729Z,51.90
2019-05-22T09:57:42.258Z,51.90
2019-05-22T10:00:15.438Z,52.00
2019-05-22T10:02:44.548Z,51.90
2019-05-22T10:05:13.916Z,52.10
2019-05-22T10:07:57.904Z,52.10
2019-05-22T10:10:14.777Z,52.30
2019-05-22T10:12:44.007Z,52.60
2019-05-22T10:15:14.063Z,53.20
2019-05-22T10:17:48.694Z,53.50
2019-05-22T10:20:19.475Z,53.90
2019-05-22T10:23:14.810Z,54.00
2019-05-22T10:25:33.752Z,54.10
2019-05-22T10:28:03.179Z,53.90
2019-05-22T10:30:31.790Z,53.60
2019-05-22T10:33:00.400Z,53.40
2019-05-22T10:35:31.394Z,53.20
2019-05-22T10:38:00.533Z,52.90
2019-05-22T10:40:29.157Z,52.40
2019-05-22T10:42:57.717Z,52.50
2019-05-22T10:45:27.287Z,52.50
2019-05-22T10:47:56.618Z,52.70
2019-05-22T10:50:25.844Z,52.80
2019-05-22T10:52:55.513Z,52.80
2019-05-22T10:55:26.047Z,53.00
2019-05-22T10:57:55.277Z,53.30
2019-05-22T11:00:24.667Z,53.40
2019-05-22T11:02:53.490Z,53.40
2019-05-22T11:05:22.284Z,53.40
2019-05-22T11:07:51.963Z,53.40
2019-05-22T11:10:23.858Z,53.40
2019-05-22T11:12:53.574Z,53.30
2019-05-22T11:15:22.712Z,53.40
2019-05-22T11:17:51.916Z,53.40
2019-05-22T11:20:21.162Z,53.40
2019-05-22T11:22:49.794Z,53.60
2019-05-22T11:25:18.588Z,53.60
2019-05-22T11:27:47.410Z,53.50
2019-05-22T11:30:18.543Z,53.60
2019-05-22T11:32:47.390Z,53.70
2019-05-22T11:35:17.403Z,53.90
2019-05-22T11:37:47.510Z,53.90
2019-05-22T11:40:21.147Z,53.90
2019-05-22T11:42:52.505Z,53.90
2019-05-22T11:45:22.265Z,54.10
2019-05-22T11:47:51.965Z,54.60
2019-05-22T11:50:22.050Z,54.60
2019-05-22T11:52:50.882Z,54.60
2019-05-22T11:55:20.902Z,54.50
2019-05-22T11:57:51.367Z,54.40
2019-05-22T12:00:24.150Z,54.40
2019-05-22T12:02:55.503Z,54.20
2019-05-22T12:05:25.155Z,54.00
2019-05-22T12:07:53.767Z,53.70
2019-05-22T12:10:25.108Z,53.60
2019-05-22T12:12:55.120Z,53.40
2019-05-22T12:15:29.299Z,53.20
2019-05-22T12:17:59.247Z,52.80
2019-05-22T12:20:29.179Z,52.50
2019-05-22T12:22:59.407Z,51.20
2019-05-22T12:25:28.309Z,51.20
2019-05-22T12:27:57.912Z,51.30
2019-05-22T12:30:27.503Z,51.30
2019-05-22T12:32:56.552Z,51.10
2019-05-22T12:35:27.751Z,50.80
2019-05-22T12:37:58.037Z,50.40
2019-05-22T12:40:31.615Z,50.20
2019-05-22T12:43:00.603Z,49.30
2019-05-22T12:45:30.153Z,48.80
2019-05-22T12:48:01.992Z,48.70
2019-05-22T12:50:31.522Z,48.60
2019-05-22T12:53:04.332Z,48.00
2019-05-22T12:55:32.769Z,44.10
2019-05-22T12:58:02.251Z,44.40
2019-05-22T13:00:32.384Z,44.30
2019-05-22T13:03:04.271Z,44.30
2019-05-22T13:05:35.925Z,44.40
2019-05-22T13:08:05.027Z,45.10
2019-05-22T13:10:34.913Z,44.30
2019-05-22T13:13:03.703Z,43.60
2019-05-22T13:15:35.110Z,43.10
2019-05-22T13:18:05.060Z,39.80
2019-05-22T13:20:42.761Z,38.20
2019-05-22T13:23:11.204Z,36.80
2019-05-22T13:25:42.158Z,35.00
2019-05-22T13:28:13.598Z,33.40
2019-05-22T13:30:44.718Z,31.80
2019-05-22T13:33:20.402Z,30.10
2019-05-22T13:35:51.179Z,28.90
2019-05-22T13:38:20.491Z,27.70
2019-05-22T13:40:49.732Z,27.00
2019-05-22T13:43:18.553Z,26.10
2019-05-22T13:45:47.114Z,25.10
2019-05-22T13:48:16.478Z,24.70
2019-05-22T13:50:45.366Z,19.80
2019-05-22T13:53:17.841Z,20.80
2019-05-22T13:55:48.007Z,21.10
2019-05-22T13:58:20.200Z,21.70
2019-05-22T14:00:49.330Z,22.20
2019-05-22T14:03:23.558Z,22.70
2019-05-22T14:05:54.412Z,23.10
2019-05-22T14:08:24.194Z,23.00
2019-05-22T14:10:53.438Z,22.70
2019-05-22T14:13:25.543Z,22.50
2019-05-22T14:15:56.992Z,22.50
2019-05-22T14:18:25.024Z,22.50
2019-05-22T14:20:53.639Z,23.30
2019-05-22T14:23:22.396Z,24.70
2019-05-22T14:25:51.945Z,26.50
2019-05-22T14:28:21.376Z,28.50
2019-05-22T14:30:50.207Z,30.30
2019-05-22T14:33:18.970Z,32.10
2019-05-22T14:35:49.480Z,33.90
2019-05-22T14:38:19.422Z,35.40
2019-05-22T14:40:48.256Z,37.10
2019-05-22T14:43:16.754Z,38.40
2019-05-22T14:45:46.104Z,39.90
2019-05-22T14:48:15.137Z,41.00
2019-05-22T14:50:44.492Z,41.80
2019-05-22T14:53:15.358Z,42.50
2019-05-22T14:55:44.855Z,43.20
2019-05-22T14:58:16.057Z,43.70
2019-05-22T15:00:45.355Z,43.90
2019-05-22T15:03:15.798Z,44.20
2019-05-22T15:05:44.674Z,44.90
2019-05-22T15:08:13.246Z,45.00
2019-05-22T15:10:42.389Z,45.00
2019-05-22T15:13:10.972Z,45.10
2019-05-22T15:15:40.869Z,45.30
2019-05-22T15:18:10.997Z,45.30
2019-05-22T15:21:00.920Z,45.60
2019-05-22T15:23:32.067Z,45.90
2019-05-22T15:26:01.436Z,46.10
2019-05-22T15:28:43.180Z,46.30
2019-05-22T15:31:11.715Z,46.50
2019-05-22T15:33:41.503Z,46.50
2019-05-22T15:36:12.999Z,46.50
2019-05-22T15:38:43.509Z,46.90
2019-05-22T15:41:13.318Z,47.20
2019-05-22T15:43:51.223Z,47.60
2019-05-22T15:46:18.374Z,48.00
2019-05-22T15:48:48.727Z,48.20
2019-05-22T15:51:22.586Z,48.30
2019-05-22T15:53:55.211Z,48.40
2019-05-22T15:56:23.838Z,48.50
2019-05-22T15:58:54.726Z,48.70
2019-05-22T16:01:25.692Z,49.60
2019-05-22T16:03:55.899Z,49.20
2019-05-22T16:06:26.878Z,49.60
2019-05-22T16:08:56.834Z,49.80
2019-05-22T16:11:28.161Z,50.30
2019-05-22T16:14:00.809Z,50.60
2019-05-22T16:16:32.823Z,50.90
2019-05-22T16:19:05.236Z,51.00
2019-05-22T16:21:36.926Z,51.30
2019-05-22T16:24:06.930Z,51.60
2019-05-22T16:26:36.902Z,51.80
2019-05-22T16:29:06.725Z,51.90
2019-05-22T16:31:39.101Z,52.10
2019-05-22T16:34:09.778Z,52.20
2019-05-22T16:36:39.811Z,52.50
2019-05-22T16:39:10.645Z,52.90
2019-05-22T16:41:40.781Z,53.00
2019-05-22T16:44:11.588Z,53.40
2019-05-22T16:46:42.522Z,53.60
2019-05-22T16:49:13.454Z,53.70
2019-05-22T16:51:44.414Z,54.00
2019-05-22T16:54:20.412Z,55.90
2019-05-22T16:56:47.026Z,55.60
2019-05-22T16:59:18.579Z,55.30
2019-05-22T17:01:58.763Z,55.30
2019-05-22T17:04:18.393Z,55.30
2019-05-22T17:06:47.990Z,55.50
2019-05-22T17:09:18.700Z,55.60
2019-05-22T17:11:48.626Z,55.80
2019-05-22T17:14:20.528Z,55.80
2019-05-22T17:16:50.545Z,56.10
2019-05-22T17:19:27.273Z,56.00
2019-05-22T17:21:50.290Z,56.20
2019-05-22T17:24:19.960Z,56.30
2019-05-22T17:26:51.216Z,56.20
2019-05-22T17:29:19.773Z,55.80
2019-05-22T17:31:49.766Z,55.80
2019-05-22T17:34:32.652Z,55.80
2019-05-22T17:37:08.058Z,55.80
2019-05-22T17:39:39.080Z,55.80
2019-05-22T17:42:11.852Z,55.90
2019-05-22T17:44:43.312Z,56.00
2019-05-22T17:47:13.227Z,56.30
2019-05-22T17:49:42.353Z,56.50
2019-05-22T17:52:14.441Z,56.80
2019-05-22T17:54:46.601Z,57.10
2019-05-22T17:57:17.019Z,57.40
2019-05-22T17:59:45.510Z,57.80
2019-05-22T18:02:15.715Z,58.00
2019-05-22T18:04:44.957Z,58.40
2019-05-22T18:07:13.858Z,58.80
2019-05-22T18:09:42.925Z,59.20
2019-05-22T18:12:12.059Z,59.50
2019-05-22T18:14:40.755Z,59.80
2019-05-22T18:17:09.271Z,60.20
2019-05-22T18:19:38.665Z,64.70
2019-05-22T18:22:09.330Z,64.40
2019-05-22T18:24:37.880Z,64.10
2019-05-22T18:27:07.686Z,64.10
2019-05-22T18:29:36.183Z,63.50
2019-05-22T18:32:06.410Z,63.90
2019-05-22T18:34:34.962Z,64.00
2019-05-22T18:37:04.704Z,63.90
2019-05-22T18:39:33.667Z,64.10
2019-05-22T18:42:02.122Z,64.10
2019-05-22T18:44:30.857Z,64.40
2019-05-22T18:47:01.672Z,65.30
2019-05-22T18:49:30.526Z,64.80
2019-05-22T18:51:59.196Z,64.90
2019-05-22T18:54:27.619Z,65.00
2019-05-22T18:56:56.110Z,65.40
2019-05-22T19:00:06.228Z,65.60
2019-05-22T19:02:37.531Z,65.70
2019-05-22T19:05:06.698Z,65.80
2019-05-22T19:07:37.091Z,66.00
2019-05-22T19:10:05.680Z,66.20
2019-05-22T19:12:34.917Z,66.50
2019-05-22T19:15:04.910Z,66.70
2019-05-22T19:17:33.644Z,67.00
2019-05-22T19:20:06.181Z,67.20
2019-05-22T19:22:37.911Z,67.70
2019-05-22T19:25:06.793Z,68.00
2019-05-22T19:27:54.301Z,68.00
2019-05-22T19:30:37.689Z,68.20
2019-05-22T19:33:15.534Z,68.40
2019-05-22T19:35:45.651Z,68.50
2019-05-22T19:38:14.871Z,68.70
2019-05-22T19:40:44.982Z,68.90
2019-05-22T19:43:14.335Z,69.00
2019-05-22T19:45:43.902Z,69.10
2019-05-22T19:48:14.416Z,69.40
2019-05-22T19:50:45.888Z,69.50
2019-05-22T19:53:19.297Z,70.50
2019-05-22T19:55:47.874Z,69.80
2019-05-22T19:58:21.821Z,69.90
2019-05-22T20:00:49.524Z,70.00
2019-05-22T20:03:21.681Z,70.10
2019-05-22T20:05:52.616Z,70.30
2019-05-22T20:08:22.744Z,70.40
2019-05-22T20:10:52.121Z,70.60
2019-05-22T20:13:22.615Z,70.60
2019-05-22T20:15:52.484Z,70.90
2019-05-22T20:18:22.670Z,71.00
2019-05-22T20:20:52.254Z,71.10
2019-05-22T20:23:34.613Z,71.20
2019-05-22T20:25:52.058Z,71.30
2019-05-22T20:28:21.199Z,71.40
2019-05-22T20:30:50.862Z,71.50
2019-05-22T20:33:19.981Z,71.60
2019-05-22T20:35:49.425Z,71.90
2019-05-22T20:38:19.473Z,72.00
2019-05-22T20:40:48.307Z,72.00
2019-05-22T20:43:17.030Z,72.50
2019-05-22T20:45:47.049Z,72.70
2019-05-22T20:48:25.359Z,72.80
2019-05-22T20:50:59.825Z,72.80
2019-05-22T20:53:30.595Z,72.80
2019-05-22T20:56:00.649Z,73.00
2019-05-22T20:58:32.072Z,73.20
2019-05-22T21:01:01.191Z,73.20
2019-05-22T21:03:31.288Z,73.30
2019-05-22T21:06:02.547Z,73.40
2019-05-22T21:08:32.235Z,73.40
2019-05-22T21:11:02.686Z,73.50
2019-05-22T21:13:32.491Z,73.60
2019-05-22T21:16:03.102Z,74.50
2019-05-22T21:18:40.607Z,74.60
2019-05-22T21:21:09.672Z,74.50
2019-05-22T21:23:40.309Z,74.30
2019-05-22T21:26:11.507Z,74.30
2019-05-22T21:28:40.749Z,74.50
2019-05-22T21:31:10.350Z,74.50
2019-05-22T21:33:39.950Z,74.50
2019-05-22T21:36:10.470Z,74.50
2019-05-22T21:39:22.168Z,74.50
2019-05-22T21:41:51.693Z,74.50
2019-05-22T21:44:21.023Z,74.50
2019-05-22T21:46:51.458Z,74.60
2019-05-22T21:49:20.796Z,74.60
2019-05-22T21:51:50.096Z,74.70
2019-05-22T21:54:19.169Z,74.80
2019-05-22T21:56:48.878Z,74.70
2019-05-22T21:59:18.227Z,74.80
2019-05-22T22:01:55.554Z,74.80
2019-05-22T22:04:34.882Z,74.80
2019-05-22T22:07:04.242Z,74.80
2019-05-22T22:09:33.900Z,74.80
2019-05-22T22:12:03.726Z,74.80
2019-05-22T22:14:33.074Z,74.90
2019-05-22T22:17:04.205Z,74.90
2019-05-22T22:19:33.845Z,75.00
2019-05-22T22:22:03.291Z,75.00
2019-05-22T22:24:31.947Z,75.00
2019-05-22T22:27:02.192Z,75.00
2019-05-22T22:29:31.721Z,75.00
2019-05-22T22:32:00.614Z,77.00
2019-05-22T22:34:49.991Z,76.90
2019-05-22T22:37:19.405Z,76.60
2019-05-22T22:39:54.126Z,76.40
2019-05-22T22:42:26.242Z,76.30
2019-05-22T22:44:56.973Z,76.20
2019-05-22T22:47:34.311Z,76.20
2019-05-22T22:50:03.982Z,76.20
2019-05-22T22:52:33.785Z,76.20
2019-05-22T22:55:03.894Z,76.20
2019-05-22T22:57:33.166Z,76.00
2019-05-22T23:00:03.310Z,75.90
2019-05-22T23:02:34.478Z,76.10
2019-05-22T23:05:04.421Z,76.20
2019-05-22T23:07:34.938Z,76.10
2019-05-22T23:10:08.110Z,75.90
2019-05-22T23:12:38.991Z,75.80
2019-05-22T23:15:09.376Z,75.60
2019-05-22T23:17:39.870Z,75.50
2019-05-22T23:20:07.962Z,75.40
2019-05-22T23:22:35.535Z,76.00
2019-05-22T23:25:06.982Z,75.30
2019-05-22T23:27:36.571Z,75.30
2019-05-22T23:30:06.179Z,75.30
2019-05-22T23:32:35.932Z,75.50
2019-05-22T23:35:05.420Z,75.50
2019-05-22T23:37:35.016Z,75.60
2019-05-22T23:40:06.472Z,75.70
2019-05-22T23:42:39.652Z,75.80
2019-05-22T23:45:12.468Z,75.90
2019-05-22T23:48:16.827Z,75.90
2019-05-22T23:50:46.774Z,76.00
2019-05-22T23:53:16.261Z,76.10
2019-05-22T23:55:45.971Z,76.20
2019-05-22T23:58:17.354Z,76.30
